Time;durP1;ratioP1;P1;durP2;ratioP2;P2;SDS_P1;SDS_P2;PMS_P1;PMS_P2;Temp;Humidity;BMP_temperature;BMP_pressure;BME280_temperature;BME280_humidity;BME280_pressure;Samples;Min_cycle;Max_cycle;Signal;HPM_P1;HPM_P2
2021/07/13 00:00:19;;;;;;;16.37;13.67;;;;;;;22.56;100.00;101091.72;5008572;28;20835;-70
2021/07/13 00:02:46;;;;;;;20.53;14.80;;;;;;;22.53;100.00;101084.03;5006241;28;20476;-72
2021/07/13 00:05:15;;;;;;;17.90;13.23;;;;;;;22.53;100.00;101092.91;5025268;28;20495;-73
2021/07/13 00:07:42;;;;;;;24.33;15.27;;;;;;;22.54;100.00;101094.56;5005604;28;20409;-70
2021/07/13 00:10:09;;;;;;;19.13;14.73;;;;;;;22.51;100.00;101102.09;5008979;28;20453;-71
2021/07/13 00:12:36;;;;;;;21.97;14.90;;;;;;;22.47;100.00;101100.78;5013368;28;20467;-70
2021/07/13 00:15:05;;;;;;;25.43;15.50;;;;;;;22.50;100.00;101095.06;5009468;28;20840;-70
2021/07/13 00:17:30;;;;;;;30.30;15.90;;;;;;;22.48;100.00;101102.44;5010953;28;20409;-70
2021/07/13 00:19:56;;;;;;;25.43;15.40;;;;;;;22.45;100.00;101102.81;5009210;28;20487;-69
2021/07/13 00:22:21;;;;;;;25.70;14.50;;;;;;;22.35;100.00;101093.09;5009124;28;20174;-70
2021/07/13 00:24:47;;;;;;;15.70;13.33;;;;;;;22.36;100.00;101092.09;5008945;28;20658;-69
2021/07/13 00:27:12;;;;;;;22.80;16.40;;;;;;;22.31;100.00;101088.28;5009488;28;20516;-71
2021/07/13 00:29:38;;;;;;;23.67;18.40;;;;;;;22.20;100.00;101092.13;5008973;28;20197;-71
2021/07/13 00:32:03;;;;;;;23.73;19.17;;;;;;;22.28;100.00;101092.09;5009351;28;20622;-71
2021/07/13 00:34:29;;;;;;;29.60;21.40;;;;;;;22.30;100.00;101079.41;5009621;28;20158;-72
2021/07/13 00:36:54;;;;;;;29.03;19.23;;;;;;;22.28;100.00;101091.28;5009983;28;20536;-71
2021/07/13 00:39:20;;;;;;;25.00;17.53;;;;;;;22.21;100.00;101087.59;5009387;28;20175;-72
2021/07/13 00:41:45;;;;;;;23.67;17.13;;;;;;;22.17;100.00;101092.47;5010916;28;20216;-70
2021/07/13 00:44:11;;;;;;;24.40;16.40;;;;;;;22.18;100.00;101091.47;5009519;28;20183;-73
2021/07/13 00:46:47;;;;;;;22.90;17.17;;;;;;;22.08;100.00;101099.69;5011795;28;20170;-70
2021/07/13 00:49:15;;;;;;;28.63;16.13;;;;;;;22.08;100.00;101093.50;5011055;28;20263;-72
2021/07/13 00:51:42;;;;;;;23.03;16.87;;;;;;;22.02;100.00;101099.47;5010719;28;20409;-72
2021/07/13 00:54:09;;;;;;;22.20;14.97;;;;;;;22.10;100.00;101102.19;5010893;28;21030;-72
2021/07/13 00:56:40;;;;;;;21.90;15.50;;;;;;;22.05;100.00;101102.63;5011368;28;20417;-72
2021/07/13 00:59:06;;;;;;;25.40;14.90;;;;;;;22.05;100.00;101101.81;5011004;28;20428;-72
2021/07/13 01:01:33;;;;;;;26.93;15.60;;;;;;;22.03;100.00;101109.19;5009305;28;20417;-72
2021/07/13 01:04:02;;;;;;;25.47;15.20;;;;;;;22.01;100.00;101100.50;5010655;28;20192;-73
2021/07/13 01:06:54;;;;;;;29.60;15.23;;;;;;;21.99;100.00;101094.44;5012962;28;20482;-72
2021/07/13 01:10:00;;;;;;;21.37;14.30;;;;;;;22.04;100.00;101095.63;5014901;28;20444;-72
2021/07/13 01:12:41;;;;;;;18.93;13.47;;;;;;;22.02;100.00;101088.78;4996131;28;21022;-72
2021/07/13 01:15:08;;;;;;;24.30;14.53;;;;;;;22.01;100.00;101104.00;5008274;28;20412;-72
2021/07/13 01:17:39;;;;;;;19.83;15.00;;;;;;;22.02;100.00;101092.28;5015924;28;20504;-71
2021/07/13 01:20:14;;;;;;;20.20;14.50;;;;;;;22.03;100.00;101101.97;5013289;28;21009;-72
2021/07/13 01:22:47;;;;;;;22.87;14.97;;;;;;;22.04;100.00;101092.09;5014325;28;20446;-70
2021/07/13 01:25:31;;;;;;;18.40;14.40;;;;;;;22.03;100.00;101098.47;5017861;28;20420;-70
2021/07/13 01:28:05;;;;;;;21.27;15.53;;;;;;;22.00;100.00;101101.50;5021525;28;20413;-70
2021/07/13 01:30:36;;;;;;;20.47;15.17;;;;;;;22.02;100.00;101104.81;5014553;28;20423;-72
2021/07/13 01:33:09;;;;;;;20.83;15.53;;;;;;;21.97;100.00;101105.31;5013820;28;20460;-70
2021/07/13 01:35:42;;;;;;;21.33;15.63;;;;;;;21.96;100.00;101102.81;5019374;28;20439;-72
2021/07/13 01:38:11;;;;;;;17.80;14.70;;;;;;;21.94;100.00;101104.84;5016123;28;20416;-70
2021/07/13 01:40:40;;;;;;;30.40;17.13;;;;;;;21.87;100.00;101096.63;5020574;28;20856;-70
2021/07/13 01:43:09;;;;;;;26.20;15.60;;;;;;;21.86;100.00;101086.94;5013827;28;20405;-72
2021/07/13 01:45:35;;;;;;;30.20;15.23;;;;;;;21.85;100.00;101101.31;5019007;28;20774;-71
2021/07/13 01:48:02;;;;;;;25.27;17.70;;;;;;;21.76;100.00;101099.63;5015259;28;20409;-71
2021/07/13 01:50:30;;;;;;;24.83;19.57;;;;;;;21.69;100.00;101098.63;5013483;28;20433;-71
2021/07/13 01:52:56;;;;;;;21.70;18.27;;;;;;;21.63;100.00;101091.28;5013648;28;20494;-71
2021/07/13 01:55:22;;;;;;;21.70;17.80;;;;;;;21.56;100.00;101096.44;5015393;28;20907;-71
2021/07/13 01:57:51;;;;;;;22.47;16.13;;;;;;;21.55;100.00;101102.81;5021651;28;20182;-71
2021/07/13 02:00:17;;;;;;;18.63;14.47;;;;;;;21.55;100.00;101105.47;5013469;28;20414;-72
2021/07/13 02:02:47;;;;;;;20.07;16.50;;;;;;;21.55;100.00;101106.31;5014149;28;20443;-71
2021/07/13 02:05:13;;;;;;;20.30;15.30;;;;;;;21.60;100.00;101116.50;5013970;28;20323;-69
2021/07/13 02:07:42;;;;;;;22.60;16.90;;;;;;;21.66;100.00;101107.00;5024307;28;20452;-72
2021/07/13 02:10:10;;;;;;;20.43;14.97;;;;;;;21.68;100.00;101108.47;5013318;28;20457;-71
2021/07/13 02:12:37;;;;;;;25.20;16.67;;;;;;;21.69;100.00;101110.19;5021215;28;20927;-71
2021/07/13 02:15:04;;;;;;;23.70;16.70;;;;;;;21.71;100.00;101110.84;5013236;28;21179;-70
2021/07/13 02:17:31;;;;;;;21.40;15.33;;;;;;;21.74;100.00;101115.84;5026481;28;20421;-69
2021/07/13 02:20:03;;;;;;;17.23;15.17;;;;;;;21.76;100.00;101110.31;5013425;28;20410;-70
2021/07/13 02:22:29;;;;;;;22.80;16.60;;;;;;;21.75;100.00;101112.16;5013646;28;20394;-71
2021/07/13 02:24:54;;;;;;;23.67;16.60;;;;;;;21.74;100.00;101115.84;5013274;28;20472;-69
2021/07/13 02:27:21;;;;;;;19.67;16.90;;;;;;;21.79;100.00;101110.84;5013020;28;20181;-71
2021/07/13 02:29:56;;;;;;;21.53;15.33;;;;;;;21.84;100.00;101103.16;5012447;28;20726;-71
2021/07/13 02:32:32;;;;;;;25.07;16.70;;;;;;;21.87;100.00;101108.16;5012760;28;20452;-71
2021/07/13 02:35:00;;;;;;;18.50;14.97;;;;;;;21.88;100.00;101104.50;5013190;28;20413;-71
2021/07/13 02:37:27;;;;;;;19.97;14.80;;;;;;;21.87;100.00;101100.16;5024954;28;20443;-71
2021/07/13 02:39:53;;;;;;;19.20;15.30;;;;;;;21.96;100.00;101098.31;5013379;28;20401;-70
2021/07/13 02:42:19;;;;;;;21.90;16.00;;;;;;;21.93;100.00;101103.16;5013168;28;20465;-71
2021/07/13 02:44:47;;;;;;;20.50;14.93;;;;;;;21.96;100.00;101105.50;5012547;28;20441;-73
2021/07/13 02:47:14;;;;;;;23.47;15.17;;;;;;;21.97;100.00;101104.50;5023517;28;20223;-70
2021/07/13 02:49:48;;;;;;;29.50;18.57;;;;;;;21.99;100.00;101102.47;5014780;28;20823;-71
2021/07/13 02:52:27;;;;;;;31.50;25.40;;;;;;;21.92;100.00;101106.84;5012876;28;20937;-71
2021/07/13 02:54:59;;;;;;;44.93;31.57;;;;;;;21.92;100.00;101104.19;5012749;28;20408;-71
2021/07/13 02:57:27;;;;;;;43.13;32.33;;;;;;;21.87;100.00;101102.00;5017719;28;20409;-71
2021/07/13 02:59:54;;;;;;;37.27;29.77;;;;;;;21.81;100.00;101106.16;5012906;28;20451;-71
2021/07/13 03:02:23;;;;;;;33.57;25.57;;;;;;;21.86;100.00;101105.66;5012976;28;20421;-71
2021/07/13 03:04:50;;;;;;;31.27;22.20;;;;;;;21.84;100.00;101103.16;5012632;28;20397;-71
2021/07/13 03:07:18;;;;;;;33.27;21.50;;;;;;;21.81;100.00;101106.16;5018512;28;20413;-71
2021/07/13 03:09:44;;;;;;;27.50;19.97;;;;;;;21.72;100.00;101106.31;5012687;28;20869;-72
2021/07/13 03:12:10;;;;;;;20.30;16.40;;;;;;;21.62;100.00;101109.16;5012472;28;20488;-73
2021/07/13 03:14:38;;;;;;;24.23;19.10;;;;;;;21.59;100.00;101104.13;5012181;28;20926;-72
2021/07/13 03:17:04;;;;;;;29.53;21.97;;;;;;;21.56;100.00;101112.50;5019717;28;20417;-71
2021/07/13 03:19:30;;;;;;;44.77;31.70;;;;;;;21.52;100.00;101111.97;5011977;28;20409;-71
2021/07/13 03:21:58;;;;;;;60.93;31.90;;;;;;;21.48;100.00;101107.13;5012336;28;20412;-70
2021/07/13 03:24:26;;;;;;;35.57;27.03;;;;;;;21.50;100.00;101110.47;5012405;28;20181;-72
2021/07/13 03:26:52;;;;;;;33.67;25.07;;;;;;;21.48;100.00;101113.31;5019164;28;20415;-72
2021/07/13 03:29:19;;;;;;;27.20;22.43;;;;;;;21.54;100.00;101111.84;5011415;28;20453;-71
2021/07/13 03:31:45;;;;;;;30.87;20.10;;;;;;;21.61;100.00;101110.16;5012142;28;20401;-72
2021/07/13 03:34:11;;;;;;;29.50;18.23;;;;;;;21.65;100.00;101110.66;5011682;28;20417;-72
2021/07/13 03:36:38;;;;;;;22.37;16.90;;;;;;;21.59;100.00;101109.47;5011269;28;20612;-71
2021/07/13 03:39:04;;;;;;;24.53;18.07;;;;;;;21.68;100.00;101102.28;5011687;28;20946;-71
2021/07/13 03:41:30;;;;;;;26.00;17.57;;;;;;;21.73;100.00;101103.47;5011898;28;20432;-71
2021/07/13 03:44:00;;;;;;;27.77;16.70;;;;;;;21.75;100.00;101100.63;5011889;28;20974;-71
2021/07/13 03:46:25;;;;;;;24.23;17.47;;;;;;;21.83;100.00;101116.69;5023205;28;20629;-70
2021/07/13 03:48:54;;;;;;;22.10;17.47;;;;;;;21.90;100.00;101112.34;5011456;28;21039;-71
2021/07/13 03:51:36;;;;;;;21.13;16.10;;;;;;;21.99;100.00;101115.84;5011096;28;20174;-71
2021/07/13 03:54:02;;;;;;;21.87;16.17;;;;;;;22.00;100.00;101110.34;5011313;28;20413;-71
2021/07/13 03:56:27;;;;;;;20.77;16.33;;;;;;;22.06;100.00;101114.19;5014373;28;20496;-70
2021/07/13 03:58:54;;;;;;;22.23;15.90;;;;;;;22.07;100.00;101114.03;5010866;28;20528;-71
2021/07/13 04:01:20;;;;;;;29.33;17.27;;;;;;;22.10;100.00;101119.06;5011463;28;20236;-72
2021/07/13 04:03:45;;;;;;;24.03;17.80;;;;;;;22.10;100.00;101116.41;5010788;28;20428;-71
2021/07/13 04:06:11;;;;;;;27.60;16.47;;;;;;;22.12;100.00;101106.34;5006365;28;20659;-71
2021/07/13 04:08:36;;;;;;;25.63;16.37;;;;;;;22.08;100.00;101115.72;5022856;28;20254;-70
2021/07/13 04:11:02;;;;;;;23.50;17.30;;;;;;;22.15;100.00;101113.22;5011370;28;20180;-71
2021/07/13 04:13:27;;;;;;;22.93;16.90;;;;;;;22.17;100.00;101119.25;5018956;28;20225;-71
2021/07/13 04:15:53;;;;;;;25.47;16.57;;;;;;;22.19;100.00;101117.22;5011047;28;20166;-72
2021/07/13 04:18:19;;;;;;;24.53;18.43;;;;;;;22.23;100.00;101118.56;5012242;28;20174;-72
2021/07/13 04:20:44;;;;;;;32.20;20.03;;;;;;;22.26;100.00;101115.53;5010531;28;20274;-72
2021/07/13 04:23:09;;;;;;;22.60;16.53;;;;;;;22.27;100.00;101101.16;5011008;28;20170;-71
2021/07/13 04:25:35;;;;;;;24.00;16.00;;;;;;;22.29;100.00;101099.16;5014874;28;20223;-72
2021/07/13 04:28:00;;;;;;;22.97;18.73;;;;;;;22.38;100.00;101100.81;5010551;28;20167;-73
2021/07/13 04:30:26;;;;;;;24.63;17.70;;;;;;;22.50;100.00;101101.25;5010238;28;20202;-70
2021/07/13 04:32:51;;;;;;;26.20;17.93;;;;;;;22.63;100.00;101100.75;5010545;28;20704;-70
2021/07/13 04:35:17;;;;;;;24.87;16.23;;;;;;;22.60;100.00;101098.41;5019215;28;20200;-70
2021/07/13 04:37:43;;;;;;;26.37;18.03;;;;;;;22.66;100.00;101103.06;5010356;28;20189;-70
2021/07/13 04:40:09;;;;;;;25.77;17.37;;;;;;;22.62;100.00;101099.06;5010856;28;20174;-70
2021/07/13 04:42:35;;;;;;;23.40;17.43;;;;;;;22.60;100.00;101106.44;5010438;28;20475;-71
2021/07/13 04:45:02;;;;;;;24.63;18.07;;;;;;;22.58;100.00;101105.75;5012763;28;20417;-71
2021/07/13 04:47:28;;;;;;;19.40;16.40;;;;;;;22.54;100.00;101104.44;5008146;28;20730;-72
2021/07/13 04:49:53;;;;;;;22.57;17.83;;;;;;;22.57;100.00;101107.59;5009947;28;20989;-71
2021/07/13 04:52:19;;;;;;;24.27;17.40;;;;;;;22.62;100.00;101115.13;5008299;28;20181;-71
2021/07/13 04:54:45;;;;;;;20.43;16.87;;;;;;;22.69;100.00;101105.41;5020180;28;20218;-71
2021/07/13 04:57:11;;;;;;;19.60;17.50;;;;;;;22.76;100.00;101109.06;5009925;28;20241;-70
2021/07/13 04:59:36;;;;;;;21.13;16.47;;;;;;;22.84;100.00;101113.56;5009156;28;20429;-71
2021/07/13 05:02:02;;;;;;;23.00;17.63;;;;;;;22.85;100.00;101110.75;5010141;28;20181;-71
2021/07/13 05:04:28;;;;;;;26.37;17.17;;;;;;;22.85;100.00;101104.50;5012865;28;20193;-71
2021/07/13 05:06:53;;;;;;;31.50;17.10;;;;;;;22.94;100.00;101104.31;5015954;28;20850;-72
2021/07/13 05:09:19;;;;;;;21.73;16.00;;;;;;;22.97;100.00;101104.00;5009830;28;20190;-72
2021/07/13 05:11:45;;;;;;;21.50;16.00;;;;;;;23.05;100.00;101104.94;5009572;28;20417;-72
2021/07/13 05:14:12;;;;;;;20.27;17.63;;;;;;;23.27;100.00;101104.16;5010405;28;20172;-73
2021/07/13 05:16:38;;;;;;;21.90;17.50;;;;;;;23.44;100.00;101107.59;5011783;28;20224;-71
2021/07/13 05:19:03;;;;;;;20.00;16.80;;;;;;;23.54;100.00;101105.50;5009389;28;20417;-72
2021/07/13 05:21:30;;;;;;;23.10;17.20;;;;;;;23.60;100.00;101104.84;5009237;28;20178;-71
2021/07/13 05:23:56;;;;;;;20.23;15.80;;;;;;;23.71;100.00;101112.44;5008934;28;20320;-71
2021/07/13 05:26:21;;;;;;;17.73;15.50;;;;;;;23.71;100.00;101107.09;5009736;28;20919;-72
2021/07/13 05:28:49;;;;;;;22.43;16.60;;;;;;;23.76;100.00;101110.06;5008609;28;20198;-71
2021/07/13 05:31:15;;;;;;;20.13;17.33;;;;;;;23.72;100.00;101110.59;5009455;28;20330;-71
2021/07/13 05:33:40;;;;;;;24.53;16.00;;;;;;;23.82;100.00;101116.59;5006624;28;20574;-71
2021/07/13 05:36:06;;;;;;;22.67;17.23;;;;;;;23.92;100.00;101124.38;5011372;28;20167;-74
2021/07/13 05:38:31;;;;;;;23.80;18.70;;;;;;;23.98;100.00;101124.50;5009041;28;20644;-73
2021/07/13 05:40:57;;;;;;;27.20;16.10;;;;;;;24.09;100.00;101128.59;5009259;28;20174;-73
2021/07/13 05:43:22;;;;;;;27.03;17.83;;;;;;;24.20;100.00;101136.22;5009235;28;20186;-71
2021/07/13 05:45:48;;;;;;;21.83;15.50;;;;;;;24.32;100.00;101121.34;5009738;28;20170;-71
2021/07/13 05:48:13;;;;;;;22.33;16.70;;;;;;;24.39;100.00;101126.00;5010644;28;20166;-72
2021/07/13 05:50:39;;;;;;;26.67;17.10;;;;;;;24.50;100.00;101129.09;5013982;28;20585;-71
2021/07/13 05:53:04;;;;;;;20.70;18.17;;;;;;;24.65;100.00;101114.81;5009451;28;20631;-71
2021/07/13 05:55:30;;;;;;;22.97;18.60;;;;;;;24.70;100.00;101123.16;5009524;28;20201;-73
2021/07/13 05:57:55;;;;;;;23.00;18.23;;;;;;;24.82;100.00;101114.44;5010242;28;20174;-73
2021/07/13 06:00:22;;;;;;;22.90;16.40;;;;;;;24.90;100.00;101118.88;5010984;28;20249;-72
2021/07/13 06:02:48;;;;;;;26.40;17.30;;;;;;;24.96;100.00;101114.63;5019201;28;20170;-70
2021/07/13 06:05:14;;;;;;;19.13;17.03;;;;;;;25.10;100.00;101121.88;5012754;28;20466;-72
2021/07/13 06:07:46;;;;;;;25.17;16.50;;;;;;;25.24;100.00;101115.63;5013274;28;20239;-74
2021/07/13 06:10:13;;;;;;;28.47;17.83;;;;;;;25.35;100.00;101114.28;5012870;28;20181;-72
2021/07/13 06:12:38;;;;;;;26.30;15.67;;;;;;;25.40;100.00;101106.50;5013539;28;20487;-72
2021/07/13 06:15:05;;;;;;;22.87;15.50;;;;;;;25.51;100.00;101105.13;5013673;28;20409;-73
2021/07/13 06:17:31;;;;;;;19.93;13.33;;;;;;;25.60;100.00;101103.97;5012978;28;20161;-71
2021/07/13 06:19:56;;;;;;;22.07;12.77;;;;;;;25.68;100.00;101095.78;5018754;28;20409;-71
2021/07/13 06:22:22;;;;;;;23.07;15.00;;;;;;;25.80;100.00;101093.44;5013093;28;20238;-72
2021/07/13 06:24:48;;;;;;;19.20;13.27;;;;;;;25.95;100.00;101086.94;5013240;28;20632;-72
2021/07/13 06:27:13;;;;;;;15.67;12.50;;;;;;;26.05;100.00;101086.59;5013353;28;20368;-72
2021/07/13 06:29:39;;;;;;;21.80;13.53;;;;;;;26.16;100.00;101087.94;5019586;28;20555;-72
2021/07/13 06:32:06;;;;;;;17.23;12.37;;;;;;;26.26;100.00;101094.63;5012115;28;20308;-73
2021/07/13 06:34:31;;;;;;;20.57;13.40;;;;;;;26.35;100.00;101091.78;5012840;28;20166;-71
2021/07/13 06:36:57;;;;;;;15.73;11.23;;;;;;;26.35;100.00;101087.22;5012833;28;20410;-70
2021/07/13 06:39:22;;;;;;;13.13;10.90;;;;;;;26.43;100.00;101084.41;5020612;28;20628;-72
2021/07/13 06:41:48;;;;;;;11.80;10.50;;;;;;;26.56;100.00;101083.66;5012537;28;20162;-72
2021/07/13 06:44:13;;;;;;;15.10;11.63;;;;;;;26.72;100.00;101086.03;5012769;28;20533;-72
2021/07/13 06:46:39;;;;;;;20.10;13.60;;;;;;;26.83;100.00;101080.09;5012783;28;20225;-70
2021/07/13 06:49:05;;;;;;;26.90;13.47;;;;;;;26.97;100.00;101080.94;5019094;28;20603;-70
2021/07/13 06:51:30;;;;;;;18.30;12.00;;;;;;;27.13;100.00;101078.94;5015230;28;20170;-73
2021/07/13 06:53:56;;;;;;;18.60;14.17;;;;;;;27.19;100.00;101075.44;5003991;28;20535;-71
2021/07/13 06:56:23;;;;;;;18.50;14.47;;;;;;;27.13;100.00;101073.56;5012329;28;20224;-71
2021/07/13 06:58:48;;;;;;;17.17;12.40;;;;;;;27.14;100.00;101067.97;5013034;28;20184;-70
2021/07/13 07:01:14;;;;;;;15.70;12.07;;;;;;;27.18;100.00;101057.59;5011136;28;20432;-71
2021/07/13 07:03:40;;;;;;;17.73;14.30;;;;;;;27.31;100.00;101058.47;5010923;28;20413;-71
2021/07/13 07:06:06;;;;;;;24.13;15.90;;;;;;;27.35;100.00;101057.00;5011775;28;20174;-73
2021/07/13 07:08:32;;;;;;;15.93;13.10;;;;;;;27.43;100.00;101055.97;5011757;28;20202;-72
2021/07/13 07:10:57;;;;;;;12.90;11.60;;;;;;;27.48;100.00;101060.78;5012509;28;20417;-72
2021/07/13 07:13:23;;;;;;;18.53;12.13;;;;;;;27.59;100.00;101057.47;5016894;28;20224;-70
2021/07/13 07:15:48;;;;;;;16.93;11.53;;;;;;;27.77;100.00;101048.78;5013510;28;20177;-70
2021/07/13 07:18:14;;;;;;;14.90;12.93;;;;;;;27.92;100.00;101055.63;5011944;28;20186;-70
2021/07/13 07:20:40;;;;;;;18.10;12.30;;;;;;;28.08;100.00;101050.84;5010598;28;20421;-72
2021/07/13 07:23:06;;;;;;;18.10;12.73;;;;;;;28.15;100.00;101051.66;5011065;28;20165;-70
2021/07/13 07:25:32;;;;;;;16.60;13.67;;;;;;;28.35;100.00;101047.09;5011226;28;20174;-70
2021/07/13 07:28:04;;;;;;;14.60;12.43;;;;;;;28.54;100.00;101039.09;5012258;28;20249;-71
2021/07/13 07:30:30;;;;;;;20.30;13.33;;;;;;;28.67;100.00;101041.78;5012064;28;20899;-71
2021/07/13 07:32:59;;;;;;;17.50;12.10;;;;;;;28.80;100.00;101036.31;5011975;28;20453;-72
2021/07/13 07:35:26;;;;;;;19.17;11.43;;;;;;;28.86;100.00;101034.59;5014413;28;20496;-72
2021/07/13 07:37:51;;;;;;;12.87;11.40;;;;;;;28.79;100.00;101031.09;5011714;28;20405;-71
2021/07/13 07:40:20;;;;;;;13.60;11.43;;;;;;;28.88;100.00;101037.94;5010845;28;20429;-71
2021/07/13 07:42:51;;;;;;;14.23;10.23;;;;;;;28.97;100.00;101034.78;5011121;28;20162;-71
2021/07/13 07:45:17;;;;;;;10.17;8.50;;;;;;;29.05;100.00;101025.59;5015593;28;20933;-72
2021/07/13 07:47:43;;;;;;;11.40;9.83;;;;;;;29.09;100.00;101034.09;5017152;28;20899;-70
2021/07/13 07:50:10;;;;;;;11.20;9.83;;;;;;;29.25;100.00;101039.84;5010238;28;20494;-72
2021/07/13 07:52:36;;;;;;;13.07;8.87;;;;;;;29.43;100.00;101027.44;5011657;28;20189;-74
2021/07/13 07:55:04;;;;;;;13.63;7.80;;;;;;;29.60;100.00;101035.88;4998443;28;20503;-72
2021/07/13 07:57:32;;;;;;;9.40;8.30;;;;;;;29.68;100.00;101025.56;5011394;28;20184;-74
2021/07/13 07:59:57;;;;;;;9.40;8.00;;;;;;;29.80;100.00;101031.94;5009997;28;20763;-75
2021/07/13 08:02:22;;;;;;;9.67;8.67;;;;;;;29.91;100.00;101030.38;5010177;28;20428;-71
2021/07/13 08:04:48;;;;;;;12.00;8.60;;;;;;;29.94;100.00;101029.94;5011227;28;20190;-74
2021/07/13 08:07:14;;;;;;;10.20;6.67;;;;;;;30.05;100.00;101020.25;5019874;28;20158;-75
2021/07/13 08:09:39;;;;;;;9.83;8.53;;;;;;;30.13;100.00;101027.28;5009429;28;20189;-74
2021/07/13 08:12:06;;;;;;;8.97;7.70;;;;;;;30.23;100.00;101022.16;5019335;28;20169;-73
2021/07/13 08:14:31;;;;;;;8.90;8.00;;;;;;;30.30;100.00;101022.91;5010392;28;20417;-72
2021/07/13 08:16:57;;;;;;;10.63;8.90;;;;;;;30.45;100.00;101025.25;5011616;28;20174;-72
2021/07/13 08:19:22;;;;;;;12.33;8.17;;;;;;;30.58;100.00;101034.06;5010426;28;20549;-72
2021/07/13 08:21:48;;;;;;;10.73;8.90;;;;;;;30.69;100.00;101031.69;5012661;28;20647;-70
2021/07/13 08:24:14;;;;;;;12.33;8.20;;;;;;;30.69;100.00;101023.56;5011770;28;20281;-71
2021/07/13 08:26:40;;;;;;;9.77;8.80;;;;;;;30.70;100.00;101026.03;5019773;28;20409;-72
2021/07/13 08:29:06;;;;;;;13.50;8.70;;;;;;;30.77;100.00;101031.38;5013345;28;20451;-72
2021/07/13 08:31:31;;;;;;;15.40;9.00;;;;;;;30.85;100.00;101021.03;5019913;28;20180;-73
2021/07/13 08:33:57;;;;;;;13.70;9.20;;;;;;;31.02;100.00;101023.09;5015535;28;20222;-70
2021/07/13 08:36:23;;;;;;;10.67;8.60;;;;;;;31.10;100.00;101017.34;5015774;28;20169;-70
2021/07/13 08:38:49;;;;;;;13.73;8.70;;;;;;;31.10;100.00;101018.16;5018428;28;20899;-72
2021/07/13 08:41:18;;;;;;;12.40;9.43;;;;;;;31.15;100.00;101017.47;5014047;28;20195;-72
2021/07/13 08:43:45;;;;;;;12.43;8.83;;;;;;;31.31;100.00;101021.44;5019629;28;20173;-72
2021/07/13 08:46:10;;;;;;;10.70;8.90;;;;;;;31.32;100.00;101017.66;5011235;28;20408;-73
2021/07/13 08:48:39;;;;;;;13.30;9.07;;;;;;;31.43;100.00;101023.09;5011326;28;20807;-73
2021/07/13 08:51:05;;;;;;;11.50;8.73;;;;;;;31.33;100.00;101022.88;5011121;28;20209;-72
2021/07/13 08:53:31;;;;;;;9.77;8.77;;;;;;;31.47;100.00;101018.88;5026827;28;20427;-73
2021/07/13 08:55:56;;;;;;;12.30;8.80;;;;;;;31.60;100.00;101015.13;5016571;28;20421;-72
2021/07/13 08:58:23;;;;;;;9.77;8.47;;;;;;;31.69;100.00;101019.16;5009659;28;20185;-71
2021/07/13 09:00:50;;;;;;;12.47;9.67;;;;;;;31.88;100.00;101016.34;5010166;28;20178;-72
2021/07/13 09:03:20;;;;;;;10.20;9.07;;;;;;;32.00;100.00;101025.31;5004562;28;20421;-73
2021/07/13 09:05:51;;;;;;;22.30;19.70;;;;;;;32.20;100.00;101022.25;5010419;28;20417;-72
2021/07/13 09:08:21;;;;;;;15.17;12.13;;;;;;;32.41;100.00;101021.63;5010630;28;20420;-73
2021/07/13 09:11:04;;;;;;;15.90;11.87;;;;;;;32.61;100.00;101028.56;5010657;28;20421;-72
2021/07/13 09:13:34;;;;;;;11.27;10.10;;;;;;;32.76;100.00;101028.88;5004733;28;20484;-72
2021/07/13 09:16:01;;;;;;;19.13;9.30;;;;;;;32.79;100.00;101021.03;5014567;28;20421;-73
2021/07/13 09:18:42;;;;;;;14.17;10.50;;;;;;;32.73;100.00;101024.75;5016187;28;20416;-73
2021/07/13 09:21:16;;;;;;;14.83;10.27;;;;;;;32.67;100.00;101024.88;5001126;28;20957;-74
2021/07/13 09:24:06;;;;;;;18.83;10.50;;;;;;;32.78;100.00;101033.00;5010194;28;20925;-73
2021/07/13 09:26:44;;;;;;;13.93;9.97;;;;;;;32.82;100.00;101030.63;5012650;28;20500;-73
2021/07/13 09:29:40;;;;;;;17.30;11.60;;;;;;;32.57;100.00;101031.78;5009082;28;20531;-72
2021/07/13 09:32:24;;;;;;;12.40;11.10;;;;;;;32.56;100.00;101034.72;5012212;28;20413;-72
2021/07/13 09:34:54;;;;;;;18.97;11.07;;;;;;;32.53;100.00;101037.94;5020181;28;20466;-73
2021/07/13 09:37:26;;;;;;;11.93;10.73;;;;;;;32.37;100.00;101033.25;5021270;28;20420;-71
2021/07/13 09:40:00;;;;;;;11.63;9.30;;;;;;;32.18;100.00;101040.66;5018011;28;20401;-72
2021/07/13 09:42:28;;;;;;;9.90;8.90;;;;;;;31.88;100.00;101033.47;5014649;28;20435;-71
2021/07/13 09:45:15;;;;;;;14.77;8.90;;;;;;;31.55;100.00;101028.56;5028079;28;20756;-71
2021/07/13 09:47:40;;;;;;;10.63;9.63;;;;;;;31.88;100.00;101035.38;5016619;28;20503;-71
2021/07/13 09:50:09;;;;;;;11.10;9.90;;;;;;;32.29;100.00;101029.78;5025597;28;20508;-72
2021/07/13 09:52:36;;;;;;;13.70;9.30;;;;;;;32.42;100.00;101033.31;5018961;28;20158;-70
2021/07/13 09:55:13;;;;;;;14.00;8.50;;;;;;;32.48;100.00;101024.22;4999357;28;20472;-72
2021/07/13 09:57:38;;;;;;;13.37;10.63;;;;;;;32.63;100.00;101031.88;5016583;28;20447;-72
2021/07/13 10:00:04;;;;;;;13.57;11.23;;;;;;;32.60;100.00;101033.19;5023654;28;20424;-73
2021/07/13 10:02:30;;;;;;;15.23;12.20;;;;;;;32.75;100.00;101040.81;5022932;28;20543;-72
2021/07/13 10:05:02;;;;;;;16.47;11.60;;;;;;;32.76;100.00;101035.13;5019098;28;20405;-74
2021/07/13 10:07:27;;;;;;;12.40;11.20;;;;;;;32.84;100.00;101028.47;5011578;28;20190;-72
2021/07/13 10:09:56;;;;;;;13.27;11.97;;;;;;;33.02;100.00;101030.19;5011851;28;20492;-72
2021/07/13 10:12:24;;;;;;;17.77;12.47;;;;;;;32.62;100.00;101036.47;5011148;28;20659;-71
2021/07/13 10:14:56;;;;;;;15.07;12.00;;;;;;;32.96;100.00;101037.47;5010830;28;20423;-72
2021/07/13 10:17:32;;;;;;;19.27;12.50;;;;;;;33.01;100.00;101025.81;5012983;28;20914;-72
2021/07/13 10:20:10;;;;;;;14.03;12.47;;;;;;;32.88;100.00;101034.31;5012399;28;20523;-73
2021/07/13 10:22:42;;;;;;;14.83;13.23;;;;;;;32.93;100.00;101026.22;5019007;28;20413;-71
2021/07/13 10:25:09;;;;;;;13.90;10.97;;;;;;;32.72;100.00;101030.41;5022014;28;20510;-72
2021/07/13 10:27:37;;;;;;;13.33;10.07;;;;;;;32.80;100.00;101022.72;5013073;28;20421;-72
2021/07/13 10:30:03;;;;;;;11.03;9.13;;;;;;;32.83;100.00;101014.03;5012946;28;20457;-72
2021/07/13 10:32:28;;;;;;;10.07;9.13;;;;;;;32.93;100.00;101021.59;5012458;28;20457;-72
2021/07/13 10:35:00;;;;;;;12.93;10.30;;;;;;;33.00;100.00;101016.00;5011963;28;20170;-72
2021/07/13 10:37:34;;;;;;;10.93;8.50;;;;;;;33.02;100.00;101008.41;5011788;28;20178;-71
2021/07/13 10:40:15;;;;;;;12.93;7.13;;;;;;;33.01;100.00;101004.03;5011901;28;20417;-71
2021/07/13 10:42:41;;;;;;;8.70;7.80;;;;;;;32.95;100.00;101005.00;5025302;28;20761;-72
2021/07/13 10:45:16;;;;;;;10.47;8.93;;;;;;;32.77;100.00;101006.00;5012039;28;20926;-73
2021/07/13 10:47:57;;;;;;;11.20;8.20;;;;;;;32.90;100.00;101003.03;5012379;28;20726;-71
2021/07/13 10:50:29;;;;;;;10.37;8.90;;;;;;;32.94;100.00;101003.34;5011613;28;20464;-71
2021/07/13 10:53:14;;;;;;;11.57;10.50;;;;;;;32.88;100.00;101002.47;5025552;28;20416;-72
2021/07/13 10:55:44;;;;;;;10.10;8.70;;;;;;;32.80;100.00;101009.09;5015529;28;20496;-71
2021/07/13 10:58:10;;;;;;;9.57;7.87;;;;;;;32.94;100.00;101008.81;5012513;28;20854;-72
2021/07/13 11:01:00;;;;;;;10.77;8.50;;;;;;;32.98;100.00;101002.63;5022524;28;20956;-70
2021/07/13 11:03:32;;;;;;;13.53;8.20;;;;;;;33.01;100.00;100996.69;5007334;28;20169;-71
2021/07/13 11:06:13;;;;;;;11.60;8.40;;;;;;;32.79;100.00;100998.41;5011862;28;20655;-72
2021/07/13 11:08:39;;;;;;;14.13;9.17;;;;;;;32.65;100.00;101003.34;5018875;28;20413;-73